WMKC/KBR METAR and TAF weather

Enter ICAO airport designator
Station Type Date Time Source
WMKC METAR 2022/12/04 05:00 UTC NOAA

WMKC 040500Z 00000KT 9999 FEW018 27/25 Q1008


Station Type Date Time Source
WMKC Decoded METAR 2022/12/04 05:00 UTC NOAA

Kota Bharu, Malaysia (WMKC) 06-10N 102-17E 5M
Dec 04, 2022 - 12:00 AM EST / 2022.12.04 0500 UTC
Wind: Calm:0
Visibility: greater than 7 mile(s):0
Sky conditions: mostly clear
Temperature: 80 F (27 C)
Dew Point: 77 F (25 C)
Relative Humidity: 88%
Pressure (altimeter): 29.77 in. Hg (1008 hPa)
ob: WMKC 040500Z 00000KT 9999 FEW018 27/25 Q1008
cycle: 5

Station Type Date Time Source
WMKC TAF 2022/12/04 06:00 UTC NOAA

TAF WMKC 040500Z 0406/0506 VRB03KT 9999 FEW018
TEMPO 0410/0414 5000 TSRA FEW017CB

Example: see airport list